createdAt,value
2018-04-10T00:01:01.412Z,39.4
2018-04-10T00:02:06.765Z,40.1
2018-04-10T00:03:11.031Z,39.4
2018-04-10T00:04:15.392Z,39.4
2018-04-10T00:05:20.664Z,39.3
2018-04-10T00:06:27.018Z,39.4
2018-04-10T00:07:31.280Z,39.4
2018-04-10T00:08:35.542Z,39.4
2018-04-10T00:09:40.708Z,40.1
2018-04-10T00:10:45.976Z,39.4
2018-04-10T00:11:51.232Z,39.5
2018-04-10T00:12:56.594Z,39.4
2018-04-10T00:14:00.854Z,39.4
2018-04-10T00:15:06.223Z,39.4
2018-04-10T00:16:11.589Z,39.4
2018-04-10T00:17:15.948Z,39.4
2018-04-10T00:18:20.306Z,39.4
2018-04-10T00:19:25.563Z,40
2018-04-10T00:20:30.933Z,39.3
2018-04-10T00:21:35.204Z,39.3
2018-04-10T00:22:39.469Z,39.4
2018-04-10T00:23:44.734Z,39.3
2018-04-10T00:24:50.102Z,39.3
2018-04-10T00:25:54.470Z,39.3
2018-04-10T00:26:59.639Z,39.3
2018-04-10T00:28:04.893Z,39.3
2018-04-10T00:29:10.258Z,39.3
2018-04-10T00:30:14.527Z,39.3
2018-04-10T00:31:18.686Z,39.4
2018-04-10T00:32:22.948Z,39.4
2018-04-10T00:33:28.303Z,39.4
2018-04-10T15:28:37.168Z,41.3
2018-04-10T15:29:42.482Z,41.3
2018-04-10T15:30:46.797Z,41.4
2018-04-10T15:31:51.157Z,41.1
2018-04-10T15:32:56.421Z,41
2018-04-10T15:34:01.679Z,40.9
2018-04-10T15:35:06.943Z,40.8
2018-04-10T15:36:11.104Z,40.9
2018-04-10T15:37:15.409Z,40.6
2018-04-10T15:38:20.684Z,40.5
2018-04-10T15:39:26.056Z,40.4
2018-04-10T15:40:30.324Z,41.1
2018-04-10T15:41:34.582Z,40.4
2018-04-10T15:42:38.937Z,40.4
2018-04-10T15:43:44.193Z,40.3
2018-04-10T15:44:49.461Z,40
2018-04-10T15:45:53.721Z,39.8
2018-04-10T15:46:58.025Z,39.7
2018-04-10T15:48:03.239Z,39.6
2018-04-10T15:49:08.511Z,39.7
2018-04-10T15:50:13.768Z,39.7
2018-04-10T15:51:17.926Z,39.7
2018-04-10T15:52:22.284Z,39.8
2018-04-10T15:53:27.649Z,39.8
2018-04-10T15:54:33.124Z,40.5
2018-04-10T15:55:37.289Z,39.7
2018-04-10T15:56:42.647Z,39.7
2018-04-10T15:57:48.003Z,39.7
2018-04-10T15:58:52.268Z,39.7
2018-04-10T15:59:56.541Z,39.7
2018-04-10T16:01:01.816Z,39.7
2018-04-10T16:02:07.079Z,39.7
2018-04-10T16:03:12.235Z,39.7
2018-04-10T16:04:16.511Z,39.7
2018-04-10T16:05:20.873Z,39.6
2018-04-10T16:06:26.238Z,39.5
2018-04-10T16:07:31.502Z,39.5
2018-04-10T16:08:35.866Z,39.5
2018-04-10T16:09:43.159Z,39.4
2018-04-10T16:10:48.329Z,39.4
2018-04-10T16:11:53.686Z,39.3
2018-04-10T16:12:57.947Z,39.3
2018-04-10T16:14:02.213Z,39.2
2018-04-10T16:15:07.486Z,39.3
2018-04-10T16:16:12.744Z,39.3
2018-04-10T16:17:18.001Z,39.3
2018-04-10T16:18:22.264Z,39.5
2018-04-10T16:19:26.637Z,39.4
2018-04-10T16:20:31.998Z,39.5
2018-04-10T16:21:37.257Z,39.4
2018-04-10T16:22:41.515Z,40.1
2018-04-10T16:23:45.782Z,39.4
2018-04-10T16:24:51.051Z,39.4
2018-04-10T16:25:56.414Z,39.4
2018-04-10T16:27:00.577Z,39.3
2018-04-10T16:28:04.837Z,39.4
2018-04-10T16:29:13.209Z,39.4
2018-04-10T16:30:18.576Z,39.4
2018-04-10T16:31:23.744Z,39.3
2018-04-10T16:32:29.008Z,39.3
2018-04-10T16:33:33.366Z,39.3
2018-04-10T16:34:38.729Z,39.2
2018-04-10T16:35:43.984Z,39.2
2018-04-10T16:36:49.241Z,39.2
2018-04-10T16:37:53.608Z,39.3
2018-04-10T16:38:57.871Z,39.3
2018-04-10T16:40:03.161Z,39.3
2018-04-10T16:41:08.521Z,39.3
2018-04-10T16:42:12.785Z,39.2
2018-04-10T16:43:17.056Z,39.2
2018-04-10T16:44:22.321Z,39.2
2018-04-10T16:45:27.579Z,39.2
2018-04-10T16:46:31.939Z,39.2
2018-04-10T16:47:36.296Z,39.1
2018-04-10T16:48:41.561Z,39.1
2018-04-10T16:49:46.932Z,39
2018-04-10T16:50:51.294Z,39
2018-04-10T16:51:55.556Z,39
2018-04-10T16:53:00.820Z,39
2018-04-10T16:54:06.084Z,39
2018-04-10T16:55:10.247Z,39.1
2018-04-10T16:56:14.608Z,39.2
2018-04-10T16:57:19.864Z,39.3
2018-04-10T16:58:25.123Z,40.1
2018-04-10T16:59:30.292Z,39.4
2018-04-10T17:00:34.646Z,39.3
2018-04-10T17:01:38.900Z,39.4
2018-04-10T17:02:44.265Z,39.4
2018-04-10T17:03:49.520Z,39.4
2018-04-10T17:04:53.923Z,39.4
2018-04-10T17:05:58.090Z,39.5
2018-04-10T17:07:03.356Z,39.5
2018-04-10T17:08:08.621Z,39.6
2018-04-10T17:09:14.790Z,39.6
2018-04-10T17:10:20.054Z,39.5
2018-04-10T17:11:24.311Z,39.6
2018-04-10T17:12:28.624Z,39.6
2018-04-10T17:13:33.987Z,39.5
2018-04-10T17:14:39.260Z,39.4
2018-04-10T17:15:43.621Z,39.4
2018-04-10T17:16:47.975Z,39.3
2018-04-10T17:17:53.249Z,39.4
2018-04-10T17:18:58.513Z,39.4
2018-04-10T17:20:02.885Z,39.5
2018-04-10T17:21:08.151Z,40.2
2018-04-10T17:22:13.406Z,39.4
2018-04-10T17:23:18.662Z,39.4
2018-04-10T17:24:22.928Z,39.4
2018-04-10T17:25:27.189Z,39.5
2018-04-10T17:26:32.450Z,39.5
2018-04-10T17:27:37.813Z,39.5
2018-04-10T17:28:42.183Z,39.5
2018-04-10T17:29:50.450Z,39.3
2018-04-10T17:30:54.741Z,39.4
2018-04-10T17:32:00.104Z,39.4
2018-04-10T17:33:05.465Z,39.5
2018-04-10T17:34:09.731Z,39.5
2018-04-10T17:35:17.093Z,39.5
2018-04-10T17:36:25.455Z,39.4
2018-04-10T17:37:30.718Z,39.3
2018-04-10T17:38:34.980Z,39.3
2018-04-10T17:39:39.253Z,39.4
2018-04-10T17:40:44.524Z,39.5
2018-04-10T17:41:49.789Z,39.3
2018-04-10T17:42:55.057Z,39.2
2018-04-10T17:43:59.318Z,39.3
2018-04-10T17:45:03.685Z,39.4
2018-04-10T17:46:08.948Z,39.4
2018-04-10T17:47:14.112Z,39.4
2018-04-10T17:48:18.367Z,39.5
2018-04-10T17:49:22.631Z,39.4
2018-04-10T17:50:26.890Z,39.4
2018-04-10T17:51:32.253Z,39.6
2018-04-10T17:52:37.519Z,39.4
2018-04-10T17:53:41.880Z,39.4
2018-04-10T17:54:47.255Z,39.4
2018-04-10T17:55:52.518Z,39.5
2018-04-10T17:56:57.777Z,39.5
2018-04-10T17:58:02.136Z,39.5
2018-04-10T17:59:07.304Z,39.6
2018-04-10T18:00:12.669Z,39.6
2018-04-10T18:01:17.926Z,39.5
2018-04-10T18:02:22.092Z,39.5
2018-04-10T18:03:26.350Z,39.5
2018-04-10T18:04:30.711Z,39.6
2018-04-10T18:05:36.075Z,39.6
2018-04-10T18:06:40.436Z,39.5
2018-04-10T18:07:44.696Z,39.5
2018-04-10T18:08:49.953Z,39.4
2018-04-10T18:09:55.324Z,39.3
2018-04-10T18:10:59.584Z,39.3
2018-04-10T18:12:03.841Z,40
2018-04-10T18:13:09.095Z,39.4
2018-04-10T18:14:14.363Z,39.5
2018-04-10T18:15:19.632Z,39.4
2018-04-10T18:16:23.888Z,39.3
2018-04-10T18:17:28.144Z,39.2
2018-04-10T18:18:33.443Z,39.4
2018-04-10T18:19:38.725Z,39.3
2018-04-10T18:20:43.083Z,39.3
2018-04-10T18:21:47.244Z,39.3
2018-04-10T18:22:51.604Z,39.3
2018-04-10T18:23:56.893Z,39.4
2018-04-10T18:25:01.166Z,39.4
2018-04-10T18:26:05.522Z,39.2
2018-04-10T18:27:10.791Z,39.2
2018-04-10T18:28:16.057Z,39.2
2018-04-10T18:29:21.325Z,39.3
2018-04-10T18:30:29.686Z,39.9
2018-04-10T18:31:33.947Z,39.3
2018-04-10T18:32:39.343Z,39.2
2018-04-10T18:33:44.601Z,39.2
2018-04-10T18:34:48.874Z,39.1
2018-04-10T18:35:53.132Z,39.2
2018-04-10T18:37:00.294Z,39.1
2018-04-10T18:38:05.652Z,39.2
2018-04-10T18:39:11.025Z,39.3
2018-04-10T18:40:15.290Z,39.9
2018-04-10T18:41:19.547Z,39.3
2018-04-10T18:42:24.907Z,39.2
2018-04-10T18:43:33.162Z,39.2
2018-04-10T18:44:38.527Z,39.3
2018-04-10T18:45:42.788Z,39.2
2018-04-10T18:46:48.197Z,39
2018-04-10T18:47:53.461Z,39
2018-04-10T18:48:57.815Z,39.1
2018-04-10T18:50:02.179Z,39.2
2018-04-10T18:51:07.541Z,39.3
2018-04-10T18:52:12.806Z,39.8
2018-04-10T18:53:17.167Z,39.1
2018-04-10T18:54:22.537Z,39.1
2018-04-10T18:55:27.896Z,39.2
2018-04-10T18:56:32.154Z,39.8
2018-04-10T18:57:36.416Z,39.8
2018-04-10T18:58:41.673Z,39.1
2018-04-10T18:59:47.055Z,39
2018-04-10T19:00:51.320Z,39.1
2018-04-10T19:01:55.686Z,39.1
2018-04-10T19:03:00.946Z,39.1
2018-04-10T19:04:06.313Z,39.2
2018-04-10T19:05:10.580Z,39.3
2018-04-10T19:06:14.841Z,39.2
2018-04-10T19:07:20.103Z,39.3
2018-04-10T19:08:25.460Z,39.9
2018-04-10T19:09:29.726Z,39.2
2018-04-10T19:10:33.982Z,39.3
2018-04-10T19:11:41.244Z,39.2
2018-04-10T19:12:46.406Z,39.3
2018-04-10T19:13:51.670Z,39.2
2018-04-10T19:14:57.041Z,39.1
2018-04-10T19:16:01.302Z,39.3
2018-04-10T19:17:06.619Z,39.2
2018-04-10T19:18:11.778Z,39.2
2018-04-10T19:19:17.044Z,39.3
2018-04-10T19:20:21.315Z,39.3
2018-04-10T19:21:25.588Z,39.3
2018-04-10T19:22:30.948Z,39.2
2018-04-10T19:23:36.107Z,39.3
2018-04-10T19:24:41.382Z,39.2
2018-04-10T19:25:45.649Z,39.3
2018-04-10T19:26:50.008Z,39.3
2018-04-10T19:27:55.269Z,39.3
2018-04-10T19:29:00.531Z,39.3
2018-04-10T19:30:04.795Z,39.3
2018-04-10T19:31:13.165Z,39.3
2018-04-10T19:32:17.527Z,39.3
2018-04-10T19:33:22.886Z,39.3
2018-04-10T19:34:27.257Z,39.3
2018-04-10T19:35:31.520Z,39.3
2018-04-10T19:36:36.877Z,39.3
2018-04-10T19:37:42.232Z,39.3
2018-04-10T19:38:46.486Z,39.3
2018-04-10T19:39:53.774Z,39.3
2018-04-10T19:40:59.038Z,39.3
2018-04-10T19:42:04.296Z,39.3
2018-04-10T19:43:09.565Z,39.3
2018-04-10T19:44:13.934Z,39.3
2018-04-10T19:45:18.298Z,39.3
2018-04-10T19:46:23.558Z,39.3
2018-04-10T19:47:28.824Z,39.3
2018-04-10T19:48:32.995Z,39.2
2018-04-10T19:49:37.286Z,39.2
2018-04-10T19:50:42.548Z,39.3
2018-04-10T19:51:47.813Z,39.2
2018-04-10T19:52:53.206Z,39.3
2018-04-10T19:53:57.476Z,39.3
2018-04-10T19:55:02.737Z,39.5
2018-04-10T19:56:08.000Z,39.6
2018-04-10T19:57:13.360Z,39.6
2018-04-10T19:58:17.723Z,39.6
2018-04-10T19:59:22.993Z,39.6
2018-04-10T20:00:28.357Z,39.6
2018-04-10T20:01:32.624Z,39.5
2018-04-10T20:02:36.891Z,39.5
2018-04-10T20:03:42.192Z,39.6
2018-04-10T20:04:47.491Z,39.4
2018-04-10T20:05:53.654Z,39.5
2018-04-10T20:06:58.021Z,39.3
2018-04-10T20:08:02.285Z,39.3
2018-04-10T20:09:07.678Z,39.3
2018-04-10T20:10:12.947Z,39.2
2018-04-10T20:11:17.312Z,39.2
2018-04-10T20:12:21.678Z,39.3
2018-04-10T20:13:27.042Z,40
2018-04-10T20:14:31.312Z,39.4
2018-04-10T20:15:35.572Z,39.4
2018-04-10T20:16:40.934Z,39.4
2018-04-10T20:17:46.294Z,39.5
2018-04-10T20:18:50.556Z,39.5
2018-04-10T20:19:54.827Z,39.4
2018-04-10T20:21:00.199Z,39.3
2018-04-10T20:22:05.565Z,39.5
2018-04-10T20:23:09.837Z,39.4
2018-04-10T20:24:14.103Z,39.3
2018-04-10T20:25:19.260Z,39.3
2018-04-10T20:26:24.617Z,39.5
2018-04-10T20:27:29.985Z,39.4
2018-04-10T20:28:34.251Z,39.3
2018-04-10T20:29:39.618Z,39.3
2018-04-10T20:30:44.982Z,39.3
2018-04-10T20:31:52.327Z,40.1
2018-04-10T20:32:56.792Z,39.4
2018-04-10T20:34:02.151Z,39.3
2018-04-10T20:35:07.627Z,39.3
2018-04-10T20:36:11.988Z,39.3
2018-04-10T20:37:17.253Z,39.4
2018-04-10T20:38:22.519Z,39.3
2018-04-10T20:39:26.985Z,39.4
2018-04-10T20:40:31.351Z,39.3
2018-04-10T20:41:36.611Z,39.2
2018-04-10T20:42:41.869Z,39.3
2018-04-10T20:43:46.139Z,39.3
2018-04-10T20:44:50.549Z,39.3
2018-04-10T20:45:55.715Z,39.4
2018-04-10T20:47:00.879Z,39.4
2018-04-10T20:48:06.141Z,39.3
2018-04-10T20:49:10.412Z,39.3
2018-04-10T20:50:14.669Z,39.4
2018-04-10T20:51:19.827Z,39.4
2018-04-10T20:52:25.089Z,39.4
2018-04-10T20:53:30.348Z,39.4
2018-04-10T20:54:34.715Z,39.4
2018-04-10T20:55:39.076Z,39.4
2018-04-10T20:56:44.332Z,39.4
2018-04-10T20:57:50.651Z,39.4
2018-04-10T20:59:16.423Z,39.4
2018-04-10T21:00:20.678Z,39.4
2018-04-10T21:01:26.041Z,39.4
2018-04-10T21:02:31.402Z,39.4
2018-04-10T21:03:35.767Z,39.4
2018-04-10T21:04:40.033Z,39.4
2018-04-10T21:05:45.298Z,39.4
2018-04-10T21:06:50.557Z,39.4
2018-04-10T21:07:54.816Z,39.4
2018-04-10T21:08:59.183Z,39.4
2018-04-10T21:10:04.456Z,39.4
2018-04-10T21:11:09.723Z,39.4
2018-04-10T21:12:14.088Z,39.4
2018-04-10T21:13:18.548Z,39.3
2018-04-10T21:14:23.911Z,39.3
2018-04-10T21:15:28.266Z,39.3
2018-04-10T21:16:32.523Z,39.4
2018-04-10T21:17:37.811Z,39.4
2018-04-10T21:18:43.273Z,39.4
2018-04-10T21:19:47.647Z,39.4
2018-04-10T21:20:52.946Z,39.4
2018-04-10T21:21:58.309Z,39.4
2018-04-10T21:23:02.672Z,39.4
2018-04-10T21:24:07.033Z,39.4
2018-04-10T21:25:12.505Z,39.4
2018-04-10T21:26:16.865Z,39.5
2018-04-10T21:27:21.236Z,39.5
2018-04-10T21:28:26.529Z,39.5
2018-04-10T21:29:30.880Z,39.5
2018-04-10T21:30:35.349Z,39.5
2018-04-10T21:31:40.821Z,39.5
2018-04-10T21:32:45.289Z,39.5
2018-04-10T21:33:50.674Z,39.5
2018-04-10T21:34:55.941Z,39.5
2018-04-10T21:36:00.200Z,39.5
2018-04-10T21:37:04.369Z,39.5
2018-04-10T21:38:09.638Z,39.4
2018-04-10T21:39:14.808Z,39.5
2018-04-10T21:40:20.075Z,39.5
2018-04-10T21:41:24.436Z,39.5
2018-04-10T21:42:28.700Z,39.5
2018-04-10T21:43:34.068Z,40.2
2018-04-10T21:44:39.446Z,39.5
2018-04-10T21:45:43.721Z,40.2
2018-04-10T21:46:47.978Z,39.5
2018-04-10T21:47:53.245Z,40.2
2018-04-10T21:48:58.606Z,39.5
2018-04-10T21:50:02.971Z,39.5
2018-04-10T21:51:07.235Z,39.6
2018-04-10T21:52:12.496Z,39.5
2018-04-10T21:53:17.760Z,39.5
2018-04-10T21:54:22.130Z,39.6
2018-04-10T21:55:26.392Z,39.6
2018-04-10T21:56:31.748Z,39.6
2018-04-10T21:57:37.014Z,39.6
2018-04-10T21:58:41.287Z,39.6
2018-04-10T21:59:49.570Z,39.6
2018-04-10T22:00:53.843Z,39.6
2018-04-10T22:01:59.357Z,39.6
2018-04-10T22:03:03.525Z,39.6
2018-04-10T22:04:07.791Z,39.6
2018-04-10T22:05:11.968Z,39.6
2018-04-10T22:06:17.231Z,39.6
2018-04-10T22:07:22.591Z,39.6
2018-04-10T22:08:26.953Z,39.6
2018-04-10T22:09:31.385Z,39.7
2018-04-10T22:10:36.753Z,40.3
2018-04-10T22:11:41.021Z,39.6
2018-04-10T22:12:45.378Z,39.6
2018-04-10T22:13:50.665Z,39.6
2018-04-10T22:14:55.937Z,39.5
2018-04-10T22:16:00.197Z,39.6
2018-04-10T22:17:04.559Z,39.6
2018-04-10T22:18:09.920Z,39.6
2018-04-10T22:19:15.183Z,39.6
2018-04-10T22:20:19.449Z,39.6
2018-04-10T22:21:23.713Z,39.6
2018-04-10T22:22:29.076Z,39.6
2018-04-10T22:23:34.440Z,39.6
2018-04-10T22:24:38.707Z,39.6
2018-04-10T22:25:43.073Z,39.6
2018-04-10T22:26:48.336Z,39.6
2018-04-10T22:27:53.596Z,39.6
2018-04-10T22:28:57.862Z,39.6
2018-04-10T22:30:02.127Z,39.6
2018-04-10T22:31:09.490Z,39.7
2018-04-10T22:32:14.747Z,39.7
2018-04-10T22:33:19.995Z,39.6
2018-04-10T22:34:24.276Z,39.7
2018-04-10T22:35:28.539Z,39.7
2018-04-10T22:36:33.908Z,39.7
2018-04-10T22:37:39.267Z,39.7
2018-04-10T22:38:43.438Z,39.7
2018-04-10T22:39:47.706Z,39.6
2018-04-10T22:40:52.980Z,39.7
2018-04-10T22:41:58.143Z,39.6
2018-04-10T22:43:03.504Z,39.7
2018-04-10T22:44:07.883Z,39.7
2018-04-10T22:45:13.358Z,39.6
2018-04-10T22:46:18.724Z,39.7
2018-04-10T22:47:23.182Z,39.6
2018-04-10T22:48:28.643Z,39.6
2018-04-10T22:49:32.990Z,39.6
2018-04-10T22:50:37.355Z,39.7
2018-04-10T22:51:42.695Z,39.6
2018-04-10T22:52:48.080Z,39.7
2018-04-10T22:53:52.347Z,39.6
2018-04-10T22:54:56.623Z,39.6
2018-04-10T22:56:01.882Z,39.7
2018-04-10T22:57:07.250Z,39.7
2018-04-10T22:58:11.517Z,39.7
2018-04-10T22:59:15.795Z,39.6
2018-04-10T23:00:23.964Z,39.7
2018-04-10T23:01:29.230Z,39.7
2018-04-10T23:02:34.499Z,39.7
2018-04-10T23:03:39.759Z,39.6
2018-04-10T23:04:44.126Z,39.7
2018-04-10T23:05:49.488Z,39.7
2018-04-10T23:06:54.853Z,40.4
2018-04-10T23:07:59.115Z,39.7
2018-04-10T23:09:06.478Z,39.7
2018-04-10T23:10:11.747Z,39.7
2018-04-10T23:11:17.011Z,39.7
2018-04-10T23:12:22.372Z,39.7
2018-04-10T23:13:26.735Z,39.7
2018-04-10T23:14:32.005Z,39.7
2018-04-10T23:15:37.268Z,39.7
2018-04-10T23:16:42.660Z,39.7
2018-04-10T23:17:47.026Z,39.7
2018-04-10T23:18:52.289Z,39.7
2018-04-10T23:19:57.559Z,39.7
2018-04-10T23:21:01.767Z,39.7
2018-04-10T23:22:09.033Z,39.7
2018-04-10T23:23:13.300Z,39.7
2018-04-10T23:24:18.672Z,39.7
2018-04-10T23:25:23.937Z,39.7
2018-04-10T23:26:28.309Z,39.7
2018-04-10T23:27:32.569Z,40.4
2018-04-10T23:28:37.833Z,39.7
2018-04-10T23:29:43.199Z,39.7
2018-04-10T23:30:47.562Z,39.7
2018-04-10T23:31:52.729Z,39.7
2018-04-10T23:32:57.999Z,39.7
2018-04-10T23:34:03.169Z,39.7
2018-04-10T23:35:08.337Z,39.6
2018-04-10T23:36:12.596Z,39.7
2018-04-10T23:37:19.857Z,39.7
2018-04-10T23:38:24.114Z,39.7
2018-04-10T23:39:29.381Z,39.7
2018-04-10T23:40:34.640Z,39.7
2018-04-10T23:41:38.804Z,40.4
2018-04-10T23:42:43.077Z,39.6
2018-04-10T23:43:47.332Z,39.7
2018-04-10T23:44:52.703Z,39.6
2018-04-10T23:45:57.966Z,39.7
2018-04-10T23:47:02.325Z,39.6
2018-04-10T23:48:06.586Z,39.6
2018-04-10T23:49:11.948Z,39.6
2018-04-10T23:50:17.244Z,39.6
2018-04-10T23:51:21.513Z,39.7
2018-04-10T23:52:25.879Z,39.6
2018-04-10T23:53:31.237Z,39.6
2018-04-10T23:54:36.612Z,39.6
2018-04-10T23:55:41.038Z,39.6
2018-04-10T23:56:46.238Z,39.7
2018-04-10T23:57:51.595Z,39.6
2018-04-10T23:58:55.953Z,39.7
